Time;durP1;ratioP1;P1;durP2;ratioP2;P2;SDS_P1;SDS_P2;PMS_P1;PMS_P2;Temp;Humidity;BMP_temperature;BMP_pressure;BME280_temperature;BME280_humidity;BME280_pressure;Samples;Min_cycle;Max_cycle;Signal;HPM_P1;HPM_P2
2023/10/17 00:00:25;;;;;;;12.20;5.47;;;3.00;99.90;;;;;;5030491;28;20440;-69
2023/10/17 00:02:53;;;;;;;12.03;5.30;;;2.90;99.90;;;;;;5030272;28;20519;-69
2023/10/17 00:05:23;;;;;;;11.17;4.73;;;2.80;99.90;;;;;;5030166;28;20475;-68
2023/10/17 00:07:52;;;;;;;10.03;4.93;;;2.80;99.90;;;;;;5030636;28;20458;-69
2023/10/17 00:10:20;;;;;;;11.40;5.30;;;2.70;99.90;;;;;;5029736;28;20502;-69
2023/10/17 00:12:52;;;;;;;12.40;6.20;;;2.70;99.90;;;;;;5029888;28;20456;-70
2023/10/17 00:15:27;;;;;;;12.50;5.40;;;2.70;99.90;;;;;;5030118;28;20461;-69
2023/10/17 00:18:03;;;;;;;11.20;5.20;;;2.60;99.90;;;;;;5029966;28;20889;-69
2023/10/17 00:20:37;;;;;;;12.17;5.13;;;2.60;99.90;;;;;;5030023;28;20452;-69
2023/10/17 00:23:06;;;;;;;12.40;5.97;;;2.50;99.90;;;;;;5029901;28;20448;-69
2023/10/17 00:25:35;;;;;;;11.27;5.50;;;2.40;99.90;;;;;;5029647;28;20472;-69
2023/10/17 00:28:04;;;;;;;12.60;6.50;;;2.40;99.90;;;;;;5029885;28;20958;-69
2023/10/17 00:30:32;;;;;;;12.67;6.30;;;2.30;99.90;;;;;;5028753;28;20494;-68
2023/10/17 00:33:00;;;;;;;15.70;7.43;;;2.30;99.90;;;;;;5025257;28;20613;-67
2023/10/17 00:35:36;;;;;;;11.83;6.20;;;2.20;99.90;;;;;;5029594;28;20430;-67
2023/10/17 00:38:07;;;;;;;12.87;6.23;;;2.20;99.90;;;;;;5029824;28;20451;-67
2023/10/17 00:40:44;;;;;;;11.87;5.20;;;2.20;99.90;;;;;;5028992;28;20455;-68
2023/10/17 00:43:15;;;;;;;12.20;5.90;;;2.20;99.90;;;;;;5025294;28;20455;-67
2023/10/17 00:45:45;;;;;;;11.90;5.70;;;2.20;99.90;;;;;;5029198;28;20565;-67
2023/10/17 00:48:18;;;;;;;13.98;6.95;;;2.20;99.90;;;;;;5029530;28;20439;-67
2023/10/17 00:50:50;;;;;;;11.90;5.37;;;2.20;99.90;;;;;;5027412;28;20240;-67
2023/10/17 00:53:20;;;;;;;12.17;5.63;;;2.30;99.90;;;;;;5029073;28;20440;-67
2023/10/17 00:55:55;;;;;;;11.03;4.73;;;2.20;99.90;;;;;;5027598;28;20502;-70
2023/10/17 00:58:24;;;;;;;11.03;5.70;;;2.30;99.90;;;;;;5028255;28;20448;-68
2023/10/17 01:00:58;;;;;;;12.43;6.00;;;2.50;99.90;;;;;;5028775;28;20538;-67
2023/10/17 01:03:29;;;;;;;11.40;5.13;;;2.40;99.90;;;;;;5028671;28;20478;-67
2023/10/17 01:06:13;;;;;;;10.43;4.57;;;2.40;99.90;;;;;;5028926;28;20207;-68
2023/10/17 01:08:45;;;;;;;10.93;5.10;;;2.40;99.90;;;;;;5029032;28;20739;-67
2023/10/17 01:11:20;;;;;;;11.05;4.88;;;2.30;99.90;;;;;;5028539;28;20533;-69
2023/10/17 01:13:53;;;;;;;11.95;5.75;;;2.30;99.90;;;;;;5028737;28;20254;-69
2023/10/17 01:16:22;;;;;;;14.23;5.75;;;2.20;99.90;;;;;;5028723;28;20218;-68
2023/10/17 01:18:50;;;;;;;12.52;5.22;;;2.20;99.90;;;;;;5028866;28;20207;-68
2023/10/17 01:21:19;;;;;;;11.27;5.15;;;2.20;99.90;;;;;;5027975;28;20339;-68
2023/10/17 01:23:50;;;;;;;11.05;5.00;;;2.20;99.90;;;;;;5028451;28;20204;-67
2023/10/17 01:26:23;;;;;;;12.32;4.80;;;2.10;99.90;;;;;;5028500;28;20634;-67
2023/10/17 01:28:53;;;;;;;11.50;5.32;;;2.10;99.90;;;;;;5028669;28;20228;-69
2023/10/17 01:31:23;;;;;;;12.13;5.18;;;2.00;99.90;;;;;;5027975;28;20228;-69
2023/10/17 01:33:54;;;;;;;13.25;5.88;;;1.90;99.90;;;;;;5028296;28;20210;-69
2023/10/17 01:36:22;;;;;;;11.98;5.07;;;1.90;99.90;;;;;;5028580;28;20216;-69
2023/10/17 01:38:50;;;;;;;15.25;5.80;;;2.00;99.90;;;;;;5028629;28;20212;-69
2023/10/17 01:41:20;;;;;;;12.10;5.80;;;2.00;99.90;;;;;;5032252;28;20252;-69
2023/10/17 01:43:49;;;;;;;11.15;5.55;;;2.10;99.90;;;;;;5028527;28;20296;-68
2023/10/17 01:46:21;;;;;;;13.65;5.80;;;2.00;99.90;;;;;;5028626;28;20298;-68
2023/10/17 01:48:53;;;;;;;12.20;5.30;;;1.90;99.90;;;;;;5021228;28;20235;-70
2023/10/17 01:51:23;;;;;;;12.45;5.97;;;1.80;99.90;;;;;;5027551;28;20273;-68
2023/10/17 01:53:52;;;;;;;12.73;5.88;;;1.70;99.90;;;;;;5027752;28;20298;-68
2023/10/17 01:56:25;;;;;;;16.55;6.78;;;1.70;99.90;;;;;;5028696;28;20212;-69
2023/10/17 01:58:59;;;;;;;13.05;5.18;;;1.70;99.90;;;;;;5028652;28;20665;-68
2023/10/17 02:01:29;;;;;;;11.68;5.45;;;1.70;99.90;;;;;;5027795;28;20295;-67
2023/10/17 02:04:02;;;;;;;11.70;5.25;;;1.80;99.90;;;;;;5028132;28;20220;-69
2023/10/17 02:06:30;;;;;;;12.55;5.45;;;1.80;99.90;;;;;;5028381;28;20577;-68
2023/10/17 02:08:59;;;;;;;12.65;5.63;;;1.90;99.90;;;;;;5028657;28;20199;-68
2023/10/17 02:11:34;;;;;;;11.55;4.90;;;1.80;99.90;;;;;;5028025;28;20696;-69
2023/10/17 02:14:02;;;;;;;12.85;5.05;;;1.80;99.90;;;;;;5028296;28;20230;-68
2023/10/17 02:16:32;;;;;;;10.77;5.10;;;1.70;99.90;;;;;;5028223;28;20293;-69
2023/10/17 02:19:03;;;;;;;11.10;4.95;;;1.70;99.90;;;;;;5028311;28;20739;-68
2023/10/17 02:21:31;;;;;;;14.50;6.18;;;1.60;99.90;;;;;;5028002;28;20223;-69
2023/10/17 02:24:01;;;;;;;13.63;5.68;;;1.60;99.90;;;;;;5028126;28;20237;-69
2023/10/17 02:26:31;;;;;;;12.25;5.75;;;1.60;99.90;;;;;;5028040;28;20209;-66
2023/10/17 02:29:02;;;;;;;13.35;6.13;;;1.60;99.90;;;;;;5028244;28;20256;-69
2023/10/17 02:31:32;;;;;;;14.00;7.40;;;1.60;99.90;;;;;;5026566;28;20560;-68
2023/10/17 02:34:00;;;;;;;14.20;7.13;;;1.60;99.90;;;;;;5031264;28;20248;-68
2023/10/17 02:36:28;;;;;;;11.87;6.20;;;1.60;99.90;;;;;;5031761;28;20212;-69
2023/10/17 02:38:56;;;;;;;10.93;5.03;;;1.60;99.90;;;;;;5031692;28;20477;-69
2023/10/17 02:41:25;;;;;;;11.60;5.22;;;1.60;99.90;;;;;;5031279;28;20235;-68
2023/10/17 02:43:54;;;;;;;11.93;5.18;;;1.70;99.90;;;;;;5031602;28;20285;-69
2023/10/17 02:46:26;;;;;;;13.65;5.80;;;1.80;99.90;;;;;;5031474;28;20212;-69
2023/10/17 02:48:55;;;;;;;12.60;5.35;;;1.80;99.90;;;;;;5031516;28;20311;-68
2023/10/17 02:51:33;;;;;;;14.75;5.43;;;1.90;99.90;;;;;;5030922;28;20646;-68
2023/10/17 02:54:09;;;;;;;12.65;5.63;;;2.00;99.90;;;;;;5036804;28;20248;-69
2023/10/17 02:56:38;;;;;;;11.03;5.27;;;2.10;99.90;;;;;;5031061;28;20212;-68
2023/10/17 02:59:10;;;;;;;11.05;5.93;;;2.10;99.90;;;;;;5031376;28;20450;-68
2023/10/17 03:01:39;;;;;;;11.32;5.22;;;2.20;99.90;;;;;;5031112;28;20201;-69
2023/10/17 03:04:12;;;;;;;9.30;4.00;;;2.00;99.90;;;;;;5031192;28;20227;-67
2023/10/17 03:06:43;;;;;;;13.02;5.15;;;1.90;99.90;;;;;;5031106;28;20941;-68
2023/10/17 03:12:19;;;;;;;12.13;4.80;;;1.80;99.90;;;;;;5086156;28;20525;-69
2023/10/17 03:17:33;;;;;;;11.43;5.32;;;1.90;99.90;;;;;;5086330;28;20206;-69
2023/10/17 03:20:00;;;;;;;10.45;5.10;;;2.00;99.90;;;;;;5086109;28;20223;-68
2023/10/17 03:22:28;;;;;;;12.75;5.00;;;1.90;99.90;;;;;;5085511;28;20209;-68
2023/10/17 03:25:01;;;;;;;11.02;5.07;;;1.80;99.90;;;;;;5086071;28;20274;-68
2023/10/17 03:27:37;;;;;;;12.52;5.43;;;1.80;99.90;;;;;;5085797;28;20213;-67
2023/10/17 03:30:08;;;;;;;11.32;5.05;;;1.80;99.90;;;;;;5085941;28;20205;-68
2023/10/17 03:32:43;;;;;;;12.15;5.50;;;1.80;99.90;;;;;;5085157;28;20231;-69
2023/10/17 03:35:20;;;;;;;12.98;6.65;;;1.90;99.90;;;;;;5085715;28;20238;-68
2023/10/17 03:37:48;;;;;;;10.70;5.27;;;2.00;99.90;;;;;;5077430;28;20279;-68
2023/10/17 03:40:28;;;;;;;10.40;4.70;;;1.90;99.90;;;;;;5085533;28;20815;-68
2023/10/17 03:43:01;;;;;;;12.57;4.88;;;2.00;99.90;;;;;;5085187;28;20209;-69
2023/10/17 03:45:43;;;;;;;11.73;5.37;;;2.00;99.90;;;;;;5085303;28;20255;-69
2023/10/17 03:48:14;;;;;;;11.65;5.00;;;2.00;99.90;;;;;;5085571;28;20831;-68
2023/10/17 03:50:49;;;;;;;9.57;4.57;;;2.20;99.90;;;;;;5084740;28;20278;-70
2023/10/17 03:53:25;;;;;;;12.95;5.35;;;2.20;99.90;;;;;;5085447;28;20580;-70
2023/10/17 03:55:54;;;;;;;10.48;4.18;;;2.20;99.90;;;;;;5083077;28;20237;-69
2023/10/17 03:58:31;;;;;;;11.70;5.93;;;2.20;99.90;;;;;;5081051;28;20296;-68
2023/10/17 04:01:06;;;;;;;11.40;5.10;;;2.20;99.90;;;;;;5084447;28;21246;-68
2023/10/17 04:03:37;;;;;;;9.80;4.77;;;2.20;99.90;;;;;;5085001;28;20440;-68
2023/10/17 04:06:17;;;;;;;11.50;5.13;;;2.30;99.90;;;;;;5085144;28;20451;-68
2023/10/17 04:08:49;;;;;;;9.90;4.37;;;2.30;99.90;;;;;;5082948;28;20962;-67
2023/10/17 04:11:25;;;;;;;10.30;4.23;;;2.30;99.90;;;;;;5072155;28;20488;-67
2023/10/17 04:13:56;;;;;;;11.60;4.87;;;2.40;99.90;;;;;;5085404;28;20441;-68
2023/10/17 04:16:33;;;;;;;10.47;4.40;;;2.50;99.90;;;;;;5078122;28;20453;-66
2023/10/17 04:19:01;;;;;;;12.30;4.57;;;2.50;99.90;;;;;;5084476;28;20479;-68
2023/10/17 04:21:31;;;;;;;9.10;3.90;;;2.50;99.90;;;;;;5082392;28;20442;-65
2023/10/17 04:24:01;;;;;;;9.63;4.07;;;2.60;99.90;;;;;;5064170;28;20502;-69
2023/10/17 04:26:34;;;;;;;12.07;4.63;;;2.70;99.90;;;;;;5069258;28;20485;-68
2023/10/17 04:29:13;;;;;;;11.00;4.80;;;2.70;99.90;;;;;;5070890;28;21013;-68
2023/10/17 04:31:43;;;;;;;12.20;5.03;;;2.60;99.90;;;;;;5071619;28;20486;-68
2023/10/17 04:34:17;;;;;;;10.80;4.20;;;2.60;99.90;;;;;;5071177;28;21017;-69
2023/10/17 04:36:46;;;;;;;9.13;3.60;;;2.60;99.90;;;;;;5071030;28;20944;-68
2023/10/17 04:39:25;;;;;;;9.67;3.90;;;2.70;99.90;;;;;;5071635;28;20446;-69
2023/10/17 04:42:06;;;;;;;9.53;4.13;;;2.80;99.90;;;;;;5070468;28;20514;-67
2023/10/17 04:44:36;;;;;;;14.13;4.43;;;2.80;99.90;;;;;;5070403;28;20465;-69
2023/10/17 04:47:25;;;;;;;11.63;5.72;;;2.70;99.90;;;;;;5069805;28;20469;-68
2023/10/17 04:49:53;;;;;;;12.40;5.13;;;2.70;99.90;;;;;;5070807;28;20580;-68
2023/10/17 04:52:28;;;;;;;9.83;4.40;;;2.70;99.90;;;;;;5070284;28;20478;-70
2023/10/17 04:55:01;;;;;;;9.20;3.77;;;2.60;99.90;;;;;;5070523;28;20806;-68
2023/10/17 05:00:25;;;;;;;12.47;5.03;;;2.70;99.90;;;;;;5070609;28;20452;-69
2023/10/17 05:03:03;;;;;;;11.37;4.77;;;2.80;99.90;;;;;;5069911;28;20443;-69
2023/10/17 05:05:40;;;;;;;10.90;4.43;;;2.80;99.90;;;;;;5053103;28;20566;-69
2023/10/17 05:08:21;;;;;;;9.60;4.17;;;2.90;99.90;;;;;;5050442;28;20882;-68
2023/10/17 06:17:28;;;;;;;9.37;4.20;;;3.30;99.90;;;;;;5069221;28;20438;-68
2023/10/17 06:19:58;;;;;;;9.30;3.80;;;3.30;99.90;;;;;;5069146;28;20542;-69
2023/10/17 06:23:23;;;;;;;10.23;4.10;;;3.40;99.90;;;;;;5068800;28;20447;-69
2023/10/17 06:31:34;;;;;;;12.60;3.70;;;3.80;99.90;;;;;;5066711;28;21023;-70
2023/10/17 06:34:01;;;;;;;10.67;3.60;;;3.80;99.90;;;;;;5061773;28;20524;-68
2023/10/17 06:36:29;;;;;;;14.40;4.57;;;3.80;99.90;;;;;;5058118;28;20451;-69
2023/10/17 06:38:58;;;;;;;9.30;4.33;;;3.80;99.90;;;;;;5056938;28;20551;-70
2023/10/17 06:41:37;;;;;;;9.90;3.80;;;3.90;99.90;;;;;;5055199;28;20963;-70
2023/10/17 06:44:05;;;;;;;10.40;4.00;;;4.20;99.90;;;;;;5068894;28;20540;-68
2023/10/17 06:46:40;;;;;;;10.50;4.43;;;4.10;99.90;;;;;;5068740;28;20435;-69
2023/10/17 06:49:09;;;;;;;10.40;4.50;;;4.20;99.90;;;;;;5068955;28;20923;-70
2023/10/17 06:51:36;;;;;;;9.67;4.17;;;4.10;99.90;;;;;;5068556;28;20569;-68
2023/10/17 06:54:07;;;;;;;11.20;4.60;;;4.40;99.90;;;;;;5068857;28;21069;-70
2023/10/17 06:56:44;;;;;;;10.30;4.43;;;4.60;99.90;;;;;;5069113;28;20455;-69
2023/10/17 06:59:23;;;;;;;9.33;4.20;;;4.70;99.90;;;;;;5069811;28;20526;-70
2023/10/17 07:02:04;;;;;;;11.87;4.23;;;4.70;99.90;;;;;;5068980;28;20440;-69
2023/10/17 07:04:37;;;;;;;11.40;3.60;;;4.80;99.90;;;;;;5069164;28;20498;-69
2023/10/17 07:07:05;;;;;;;12.50;4.30;;;5.00;99.90;;;;;;5069179;28;20453;-70
2023/10/17 07:09:38;;;;;;;10.30;4.30;;;5.00;99.90;;;;;;5069402;28;20827;-69
2023/10/17 07:12:13;;;;;;;11.20;3.77;;;5.00;99.90;;;;;;5068296;28;20479;-70
2023/10/17 07:14:47;;;;;;;10.50;4.30;;;5.10;99.90;;;;;;5068280;28;20484;-70
2023/10/17 07:17:25;;;;;;;10.20;4.10;;;5.20;99.90;;;;;;5068642;28;20455;-70
2023/10/17 07:19:59;;;;;;;11.30;4.40;;;5.30;99.90;;;;;;5068371;28;20952;-70
2023/10/17 07:22:35;;;;;;;10.23;4.00;;;5.30;99.90;;;;;;5068209;28;20446;-69
2023/10/17 07:25:16;;;;;;;11.10;4.07;;;5.30;99.90;;;;;;5068338;28;21016;-69
2023/10/17 07:27:46;;;;;;;11.23;5.03;;;5.20;99.90;;;;;;5068365;28;20943;-70
2023/10/17 07:30:24;;;;;;;9.83;4.00;;;5.40;99.90;;;;;;5068533;28;20445;-68
2023/10/17 07:32:54;;;;;;;9.23;4.00;;;5.60;99.90;;;;;;5067952;28;20896;-70
2023/10/17 07:35:30;;;;;;;9.60;3.97;;;5.90;99.90;;;;;;5068693;28;20478;-70
2023/10/17 07:38:00;;;;;;;11.00;4.40;;;6.00;99.90;;;;;;5068677;28;20440;-69
2023/10/17 07:40:41;;;;;;;10.63;4.00;;;6.20;99.90;;;;;;5068455;28;20467;-70
2023/10/17 07:43:09;;;;;;;12.40;4.43;;;6.40;99.90;;;;;;5068303;28;20434;-70
2023/10/17 07:45:40;;;;;;;11.47;4.13;;;6.40;99.90;;;;;;5068113;28;20461;-70
2023/10/17 07:48:24;;;;;;;9.43;4.40;;;6.40;99.90;;;;;;5068366;28;20442;-70
2023/10/17 07:50:53;;;;;;;10.33;4.30;;;6.40;99.90;;;;;;5067600;28;20967;-70
2023/10/17 07:53:22;;;;;;;10.73;4.43;;;6.60;99.90;;;;;;5068095;28;20486;-71
2023/10/17 07:56:02;;;;;;;12.80;4.13;;;6.70;99.90;;;;;;5067907;28;20983;-70
2023/10/17 07:58:39;;;;;;;11.90;4.83;;;6.90;99.90;;;;;;5070753;28;20447;-69
2023/10/17 08:01:14;;;;;;;13.40;5.50;;;7.00;99.90;;;;;;5071667;28;20446;-70
2023/10/17 08:03:51;;;;;;;12.23;4.77;;;7.20;99.90;;;;;;5071577;28;20439;-66
2023/10/17 08:06:22;;;;;;;11.50;5.97;;;7.30;99.90;;;;;;5071967;28;20446;-69
2023/10/17 08:08:52;;;;;;;11.57;5.20;;;7.60;99.90;;;;;;5071415;28;20444;-69
2023/10/17 08:11:27;;;;;;;9.83;5.00;;;7.80;99.90;;;;;;5071295;28;20465;-68
2023/10/17 08:13:56;;;;;;;16.23;5.77;;;8.10;99.90;;;;;;5063228;28;20566;-70
2023/10/17 08:16:26;;;;;;;11.50;4.93;;;8.10;99.90;;;;;;5071523;28;21033;-70
2023/10/17 08:18:58;;;;;;;10.13;4.63;;;8.10;99.90;;;;;;5071253;28;20452;-68
2023/10/17 08:21:39;;;;;;;12.47;5.30;;;8.20;99.90;;;;;;5071072;28;20449;-69
2023/10/17 08:24:09;;;;;;;11.27;5.40;;;8.50;99.90;;;;;;5071430;28;20467;-69
2023/10/17 08:26:42;;;;;;;13.03;4.90;;;8.60;99.90;;;;;;5071407;28;20454;-69
2023/10/17 08:29:10;;;;;;;10.57;5.50;;;8.70;99.90;;;;;;5071471;28;20559;-70
2023/10/17 08:31:44;;;;;;;12.70;5.53;;;8.90;99.90;;;;;;5070882;28;20444;-69
2023/10/17 08:34:12;;;;;;;14.37;6.37;;;9.10;99.90;;;;;;5071271;28;20536;-69
2023/10/17 08:36:49;;;;;;;11.93;6.43;;;9.40;99.90;;;;;;5071322;28;20527;-70
2023/10/17 08:39:51;;;;;;;12.90;6.40;;;9.60;99.90;;;;;;5071276;28;20811;-68
2023/10/17 08:42:30;;;;;;;12.40;5.57;;;9.90;99.90;;;;;;5070672;28;20446;-70
2023/10/17 08:44:59;;;;;;;12.63;6.30;;;10.10;99.90;;;;;;5070917;28;20459;-70
2023/10/17 08:47:30;;;;;;;12.23;6.20;;;10.30;99.90;;;;;;5071064;28;20944;-70
2023/10/17 08:50:05;;;;;;;12.87;6.87;;;10.30;99.90;;;;;;5070960;28;20444;-69
2023/10/17 08:52:36;;;;;;;11.47;6.87;;;10.50;99.90;;;;;;5070235;28;20532;-70
2023/10/17 08:55:04;;;;;;;13.20;6.47;;;10.50;99.90;;;;;;5070743;28;21046;-69
2023/10/17 08:57:36;;;;;;;14.73;6.63;;;10.60;99.90;;;;;;5070770;28;20456;-69
2023/10/17 09:00:23;;;;;;;11.47;6.00;;;10.70;99.90;;;;;;5070623;28;20495;-69
2023/10/17 09:03:00;;;;;;;15.97;7.37;;;10.90;99.90;;;;;;5070164;28;20440;-71
2023/10/17 09:05:29;;;;;;;12.23;6.40;;;11.10;99.90;;;;;;5070476;28;20539;-69
2023/10/17 09:07:58;;;;;;;13.73;7.63;;;11.20;99.90;;;;;;5062413;28;20447;-69
2023/10/17 09:10:36;;;;;;;13.97;6.77;;;11.20;99.90;;;;;;5071566;28;20484;-71
2023/10/17 09:16:10;;;;;;;13.67;8.13;;;11.30;99.90;;;;;;5062166;28;20454;-71
2023/10/17 09:18:42;;;;;;;16.93;8.33;;;11.40;99.90;;;;;;5070612;28;20449;-71
2023/10/17 09:21:13;;;;;;;14.60;8.10;;;11.60;99.90;;;;;;5070291;28;20454;-69
2023/10/17 09:23:42;;;;;;;14.17;7.57;;;11.70;99.90;;;;;;5069992;28;20449;-68
2023/10/17 09:26:11;;;;;;;15.03;8.10;;;11.80;99.90;;;;;;5070376;28;20474;-68
2023/10/17 09:28:40;;;;;;;14.07;7.43;;;11.90;99.90;;;;;;5070154;28;20519;-67
2023/10/17 09:31:12;;;;;;;16.67;7.57;;;12.10;99.90;;;;;;5070005;28;20488;-68
2023/10/17 09:33:43;;;;;;;14.90;7.60;;;12.20;99.90;;;;;;5069701;28;20489;-67
2023/10/17 09:36:13;;;;;;;14.47;8.47;;;12.00;99.90;;;;;;5070018;28;20446;-68
2023/10/17 09:38:43;;;;;;;15.27;8.17;;;12.00;99.90;;;;;;5069775;28;20451;-69
2023/10/17 09:41:17;;;;;;;15.60;8.73;;;11.90;99.90;;;;;;5069500;28;20457;-68
2023/10/17 09:43:49;;;;;;;14.23;8.50;;;12.10;99.90;;;;;;5069746;28;20441;-68
2023/10/17 09:46:19;;;;;;;15.47;7.80;;;12.10;99.90;;;;;;5070105;28;20533;-69
2023/10/17 09:48:51;;;;;;;13.17;8.37;;;12.20;99.90;;;;;;5069645;28;20530;-69
2023/10/17 09:51:21;;;;;;;14.87;8.83;;;12.50;99.90;;;;;;5069381;28;20516;-68
2023/10/17 09:53:53;;;;;;;14.10;7.53;;;12.60;99.90;;;;;;5069646;28;20483;-69
2023/10/17 09:56:27;;;;;;;14.70;8.77;;;12.90;99.90;;;;;;5069694;28;20444;-68
2023/10/17 09:59:02;;;;;;;14.80;8.33;;;12.90;99.90;;;;;;5069518;28;20443;-69
2023/10/17 10:01:31;;;;;;;14.47;8.43;;;13.00;99.90;;;;;;5069318;28;20443;-69
2023/10/17 10:04:01;;;;;;;13.10;8.33;;;13.10;99.90;;;;;;5069247;28;20972;-69
2023/10/17 10:06:31;;;;;;;13.90;8.30;;;13.40;99.90;;;;;;5069889;28;20443;-68
2023/10/17 10:09:26;;;;;;;14.37;8.67;;;13.30;99.90;;;;;;5061449;28;20455;-69
2023/10/17 10:11:58;;;;;;;15.20;8.33;;;13.40;99.90;;;;;;5068838;28;20469;-69
2023/10/17 10:14:43;;;;;;;14.13;8.97;;;13.50;99.90;;;;;;5069460;28;20494;-70
2023/10/17 10:17:14;;;;;;;14.10;8.03;;;13.60;99.90;;;;;;5069678;28;20453;-68
2023/10/17 10:19:59;;;;;;;13.07;8.10;;;13.60;99.90;;;;;;5068829;28;20450;-69
2023/10/17 10:22:51;;;;;;;18.63;8.90;;;13.50;99.90;;;;;;5069021;28;20455;-68
2023/10/17 10:25:20;;;;;;;14.20;8.43;;;13.50;99.90;;;;;;5063665;28;20957;-68
2023/10/17 10:27:50;;;;;;;13.37;8.83;;;13.70;99.90;;;;;;5069202;28;20490;-71
2023/10/17 10:30:35;;;;;;;14.30;8.77;;;13.70;99.90;;;;;;5069355;28;20449;-69
2023/10/17 10:33:03;;;;;;;15.90;8.53;;;13.70;99.90;;;;;;5061119;28;20445;-69
2023/10/17 10:35:33;;;;;;;14.37;8.30;;;13.80;99.90;;;;;;5069256;28;20498;-70
2023/10/17 10:38:01;;;;;;;17.30;9.13;;;13.70;99.90;;;;;;5061221;28;20850;-70
2023/10/17 10:40:32;;;;;;;14.97;9.37;;;13.70;99.90;;;;;;5069347;28;20441;-70
2023/10/17 10:43:04;;;;;;;13.47;8.17;;;13.80;99.90;;;;;;5060741;28;20473;-70
2023/10/17 10:45:36;;;;;;;14.00;8.60;;;13.90;99.90;;;;;;5069407;28;20536;-69
2023/10/17 10:48:14;;;;;;;15.17;9.17;;;14.20;99.90;;;;;;5069283;28;20448;-69
2023/10/17 10:50:43;;;;;;;14.40;10.10;;;14.20;99.90;;;;;;5068741;28;21068;-69
2023/10/17 10:53:28;;;;;;;16.50;11.00;;;14.10;99.90;;;;;;5068714;28;20447;-69
2023/10/17 10:55:59;;;;;;;15.97;9.03;;;14.00;99.90;;;;;;5068941;28;20469;-69
2023/10/17 10:58:29;;;;;;;14.77;9.00;;;14.00;99.90;;;;;;5069367;28;20447;-70
2023/10/17 11:01:02;;;;;;;15.87;9.67;;;13.90;99.90;;;;;;5068495;28;20830;-69
2023/10/17 11:03:30;;;;;;;16.30;8.83;;;13.80;99.90;;;;;;5068793;28;20460;-69
2023/10/17 11:06:03;;;;;;;13.47;8.63;;;13.80;99.90;;;;;;5068454;28;21001;-69
2023/10/17 11:08:36;;;;;;;14.20;8.13;;;14.00;99.90;;;;;;5068985;28;20861;-67
2023/10/17 11:11:04;;;;;;;14.23;8.97;;;14.20;99.90;;;;;;5068268;28;20866;-68
2023/10/17 11:13:34;;;;;;;13.77;8.33;;;14.40;99.90;;;;;;5068373;28;20445;-69
2023/10/17 11:16:05;;;;;;;14.50;8.30;;;14.40;99.90;;;;;;5060215;28;20477;-69
2023/10/17 11:18:34;;;;;;;16.90;9.20;;;14.20;99.90;;;;;;5068563;28;20449;-68
2023/10/17 11:21:05;;;;;;;15.40;8.60;;;14.30;99.90;;;;;;5060242;28;20448;-69
2023/10/17 11:23:35;;;;;;;15.07;8.23;;;14.50;99.90;;;;;;5068329;28;20507;-69
2023/10/17 11:26:07;;;;;;;12.80;7.30;;;14.50;99.80;;;;;;5060397;28;20528;-69
2023/10/17 11:28:55;;;;;;;15.40;8.07;;;14.60;99.90;;;;;;5068319;28;20442;-69
2023/10/17 11:31:25;;;;;;;17.00;8.30;;;14.60;99.90;;;;;;5068284;28;20508;-69
2023/10/17 11:33:54;;;;;;;13.70;7.83;;;14.70;99.90;;;;;;5071776;28;20447;-68
2023/10/17 11:36:23;;;;;;;17.37;8.70;;;14.90;99.90;;;;;;5072377;28;20489;-70
2023/10/17 11:38:55;;;;;;;13.50;8.70;;;14.90;99.90;;;;;;5072005;28;20441;-69
2023/10/17 11:41:28;;;;;;;15.53;10.40;;;14.90;99.40;;;;;;5072063;28;20561;-69
2023/10/17 11:44:04;;;;;;;15.53;9.13;;;14.40;97.60;;;;;;5072287;28;20523;-70
2023/10/17 11:46:35;;;;;;;19.00;9.37;;;13.70;99.30;;;;;;5072505;28;20446;-71
2023/10/17 11:49:20;;;;;;;13.17;8.40;;;13.90;99.40;;;;;;5064305;28;20454;-71
2023/10/17 11:51:50;;;;;;;15.00;9.50;;;14.10;99.00;;;;;;5071575;28;20956;-69
2023/10/17 11:54:22;;;;;;;15.27;9.93;;;13.90;99.40;;;;;;5072021;28;20483;-68
2023/10/17 11:57:08;;;;;;;15.20;8.40;;;14.00;99.50;;;;;;5072031;28;20933;-71
2023/10/17 11:59:36;;;;;;;16.67;8.60;;;13.80;99.60;;;;;;5072131;28;20504;-69
2023/10/17 12:02:06;;;;;;;13.13;7.83;;;13.90;99.90;;;;;;5063989;28;20443;-70
2023/10/17 12:04:35;;;;;;;12.73;8.10;;;14.20;99.90;;;;;;5072050;28;20469;-69
2023/10/17 12:07:04;;;;;;;13.70;7.67;;;14.60;99.90;;;;;;5064075;28;20887;-70
2023/10/17 12:09:33;;;;;;;13.83;7.70;;;14.50;99.40;;;;;;5072037;28;20564;-69
2023/10/17 12:12:02;;;;;;;13.73;8.67;;;14.60;99.90;;;;;;5071445;28;20454;-69
2023/10/17 12:14:30;;;;;;;13.40;8.43;;;14.70;99.90;;;;;;5071595;28;20495;-71
2023/10/17 12:17:00;;;;;;;18.17;9.43;;;14.90;99.90;;;;;;5071589;28;20447;-70
2023/10/17 12:19:29;;;;;;;16.30;9.00;;;15.00;98.30;;;;;;5071795;28;20864;-70
2023/10/17 12:22:00;;;;;;;12.63;8.03;;;15.00;98.50;;;;;;5071074;28;20455;-71
2023/10/17 12:24:29;;;;;;;12.87;8.07;;;15.00;99.10;;;;;;5071415;28;20458;-69
2023/10/17 12:26:58;;;;;;;13.37;7.73;;;15.20;98.00;;;;;;5071341;28;21050;-70
2023/10/17 12:29:28;;;;;;;12.40;8.30;;;15.50;98.10;;;;;;5071356;28;20461;-69
2023/10/17 12:31:57;;;;;;;13.87;8.50;;;15.80;98.10;;;;;;5071001;28;20447;-68
2023/10/17 12:34:25;;;;;;;14.50;8.07;;;16.00;96.00;;;;;;5071306;28;20478;-69
2023/10/17 12:36:55;;;;;;;15.20;8.20;;;16.30;97.00;;;;;;5071113;28;20451;-70
2023/10/17 12:39:23;;;;;;;12.53;7.83;;;16.40;96.60;;;;;;5071380;28;20528;-71
2023/10/17 12:41:51;;;;;;;14.50;7.63;;;16.50;96.50;;;;;;5070788;28;20481;-69
2023/10/17 12:44:19;;;;;;;15.50;8.87;;;16.50;96.50;;;;;;5070685;28;21002;-70
2023/10/17 12:46:47;;;;;;;14.37;7.70;;;16.60;95.80;;;;;;5071254;28;20447;-69
2023/10/17 12:49:15;;;;;;;12.70;8.07;;;16.40;96.10;;;;;;5071079;28;20933;-70
2023/10/17 12:51:47;;;;;;;16.30;8.20;;;16.20;95.90;;;;;;5069589;28;20445;-71
2023/10/17 12:54:18;;;;;;;13.00;8.00;;;16.10;96.10;;;;;;5070407;28;20477;-70
2023/10/17 12:56:47;;;;;;;13.70;8.10;;;15.80;96.30;;;;;;5070942;28;20544;-70
2023/10/17 12:59:17;;;;;;;15.63;9.27;;;15.50;96.50;;;;;;5070516;28;20463;-70
2023/10/17 13:01:45;;;;;;;15.03;8.70;;;15.20;97.30;;;;;;5069810;28;20447;-70
2023/10/17 13:04:13;;;;;;;13.83;9.17;;;15.10;96.30;;;;;;5070520;28;20466;-69
2023/10/17 13:06:42;;;;;;;14.23;8.40;;;15.00;96.70;;;;;;5070586;28;20798;-69
2023/10/17 13:09:11;;;;;;;12.03;7.30;;;14.90;97.30;;;;;;5070874;28;20509;-69
2023/10/17 13:11:40;;;;;;;15.40;9.30;;;15.00;98.00;;;;;;5070247;28;20451;-69
2023/10/17 13:14:08;;;;;;;13.60;8.30;;;15.10;97.10;;;;;;5066866;28;20505;-68
2023/10/17 13:16:36;;;;;;;14.30;9.10;;;15.10;98.30;;;;;;5066534;28;20483;-70
2023/10/17 13:19:07;;;;;;;14.20;8.47;;;15.00;98.70;;;;;;5065787;28;20475;-70
2023/10/17 13:21:37;;;;;;;14.20;8.20;;;15.00;97.90;;;;;;5069852;28;20451;-70
2023/10/17 13:24:07;;;;;;;13.27;8.33;;;15.00;98.90;;;;;;5059516;28;20467;-69
2023/10/17 13:26:37;;;;;;;13.53;8.63;;;15.00;98.90;;;;;;5070179;28;20449;-70
2023/10/17 13:29:07;;;;;;;13.60;8.93;;;15.10;98.70;;;;;;5070082;28;20447;-69
2023/10/17 13:31:34;;;;;;;14.00;8.97;;;15.10;98.40;;;;;;5069938;28;20493;-70
2023/10/17 13:34:04;;;;;;;17.00;8.87;;;15.10;98.90;;;;;;5065166;28;20463;-70
2023/10/17 13:36:32;;;;;;;13.67;8.87;;;15.10;98.90;;;;;;5061580;28;20485;-71
2023/10/17 13:39:00;;;;;;;15.60;9.57;;;15.20;98.30;;;;;;5063321;28;20483;-71
2023/10/17 13:41:29;;;;;;;12.97;8.33;;;15.20;98.40;;;;;;5063910;28;20446;-70
2023/10/17 13:43:57;;;;;;;14.83;8.77;;;15.20;99.30;;;;;;5069707;28;20439;-70
2023/10/17 13:46:27;;;;;;;14.37;9.10;;;15.30;98.40;;;;;;5070009;28;20446;-70
2023/10/17 13:48:58;;;;;;;13.73;8.77;;;14.90;96.60;;;;;;5069905;28;20445;-68
2023/10/17 13:51:34;;;;;;;14.37;8.80;;;14.70;98.60;;;;;;5069616;28;21128;-69
2023/10/17 13:54:05;;;;;;;15.53;9.20;;;14.70;98.80;;;;;;5069413;28;20492;-70
2023/10/17 13:56:34;;;;;;;13.43;8.90;;;14.60;97.50;;;;;;5069451;28;20476;-69
2023/10/17 13:59:03;;;;;;;12.00;7.47;;;14.60;98.30;;;;;;5069574;28;20458;-70
2023/10/17 14:01:33;;;;;;;14.00;8.33;;;14.70;99.00;;;;;;5069623;28;20955;-68
2023/10/17 14:04:02;;;;;;;13.93;7.90;;;14.70;98.90;;;;;;5069103;28;20564;-69
2023/10/17 14:06:34;;;;;;;13.00;7.67;;;14.70;99.30;;;;;;5069741;28;20439;-70
2023/10/17 14:09:03;;;;;;;14.67;9.13;;;14.70;99.40;;;;;;5069324;28;20456;-70
2023/10/17 14:11:31;;;;;;;12.73;7.53;;;14.70;99.90;;;;;;5068842;28;20956;-70
2023/10/17 14:13:59;;;;;;;14.00;8.33;;;14.70;99.20;;;;;;5069140;28;20459;-70
2023/10/17 14:16:27;;;;;;;13.60;8.47;;;14.70;99.60;;;;;;5069637;28;20536;-70
2023/10/17 14:19:04;;;;;;;13.03;7.40;;;14.80;99.20;;;;;;5069587;28;20450;-70
2023/10/17 14:21:36;;;;;;;13.30;8.33;;;14.80;99.00;;;;;;5069211;28;20439;-69
2023/10/17 14:24:10;;;;;;;14.97;8.00;;;14.70;98.50;;;;;;5069122;28;20459;-68
2023/10/17 14:26:40;;;;;;;13.07;7.80;;;14.50;97.80;;;;;;5069757;28;20831;-70
2023/10/17 14:29:07;;;;;;;15.50;8.93;;;14.50;99.70;;;;;;5061339;28;20442;-69
2023/10/17 14:31:36;;;;;;;13.37;7.70;;;14.50;99.60;;;;;;5069231;28;20543;-69